createdAt,value
2019-05-05T00:00:37.189Z,7.00
2019-05-05T00:03:26.670Z,6.50
2019-05-05T00:05:57.394Z,6.37
2019-05-05T00:08:26.713Z,7.00
2019-05-05T00:11:16.798Z,6.37
2019-05-05T00:13:58.417Z,6.67
2019-05-05T00:16:38.274Z,7.60
2019-05-05T00:19:07.915Z,6.63
2019-05-05T00:21:37.474Z,6.47
2019-05-05T00:24:07.101Z,7.00
2019-05-05T00:26:36.663Z,6.93
2019-05-05T00:29:06.251Z,7.30
2019-05-05T00:31:35.914Z,7.27
2019-05-05T00:34:05.360Z,6.40
2019-05-05T00:36:35.357Z,5.17
2019-05-05T00:39:05.167Z,7.20
2019-05-05T00:41:34.818Z,7.50
2019-05-05T00:44:04.855Z,6.80
2019-05-05T00:47:05.397Z,6.67
2019-05-05T00:49:45.691Z,7.00
2019-05-05T00:52:07.457Z,6.93
2019-05-05T00:54:37.158Z,6.90
2019-05-05T00:57:06.798Z,7.80
2019-05-05T00:59:36.427Z,7.13
2019-05-05T01:02:31.077Z,7.23
2019-05-05T01:05:18.507Z,7.20
2019-05-05T01:07:48.215Z,7.50
2019-05-05T01:10:17.895Z,7.47
2019-05-05T01:12:47.351Z,6.60
2019-05-05T01:15:16.980Z,7.53
2019-05-05T01:17:46.574Z,7.80
2019-05-05T01:20:16.195Z,8.17
2019-05-05T01:22:45.766Z,7.57
2019-05-05T01:25:15.467Z,7.47
2019-05-05T01:27:45.423Z,8.20
2019-05-05T01:30:16.832Z,8.20
2019-05-05T01:32:49.355Z,7.70
2019-05-05T01:35:18.691Z,8.60
2019-05-05T01:38:04.872Z,9.27
2019-05-05T01:40:46.727Z,7.80
2019-05-05T01:43:16.059Z,8.07
2019-05-05T01:45:45.606Z,9.10
2019-05-05T01:48:15.385Z,8.57
2019-05-05T01:50:45.319Z,8.67
2019-05-05T01:53:15.282Z,9.37
2019-05-05T01:55:45.272Z,8.50
2019-05-05T01:58:15.318Z,9.37
2019-05-05T02:00:45.505Z,10.10
2019-05-05T02:03:15.177Z,10.67
2019-05-05T02:05:45.294Z,9.40
2019-05-05T02:08:15.396Z,9.97
2019-05-05T02:10:45.449Z,9.97
2019-05-05T02:13:16.116Z,10.17
2019-05-05T02:15:45.849Z,10.57
2019-05-05T02:18:15.468Z,10.30
2019-05-05T02:20:51.857Z,10.33
2019-05-05T02:23:21.480Z,9.77
2019-05-05T02:25:51.019Z,10.30
2019-05-05T02:28:20.661Z,10.97
2019-05-05T02:30:57.396Z,10.93
2019-05-05T02:33:27.070Z,10.27
2019-05-05T02:35:56.637Z,11.27
2019-05-05T02:38:26.468Z,11.50
2019-05-05T02:40:56.060Z,10.90
2019-05-05T02:43:25.713Z,11.30
2019-05-05T02:46:21.459Z,11.70
2019-05-05T02:48:51.594Z,10.17
2019-05-05T02:51:21.401Z,11.67
2019-05-05T02:53:51.249Z,11.87
2019-05-05T02:56:24.879Z,12.60
2019-05-05T02:58:56.499Z,11.77
2019-05-05T03:01:34.350Z,11.10
2019-05-05T03:04:04.053Z,12.27
2019-05-05T03:06:34.278Z,12.43
2019-05-05T03:09:04.656Z,12.17
2019-05-05T03:11:34.428Z,12.80
2019-05-05T03:14:04.405Z,13.23
2019-05-05T03:16:37.255Z,13.37
2019-05-05T03:19:07.304Z,12.87
2019-05-05T03:21:36.879Z,13.43
2019-05-05T03:24:06.810Z,14.60
2019-05-05T03:26:36.580Z,13.33
2019-05-05T03:29:08.646Z,14.03
2019-05-05T03:31:38.361Z,14.00
2019-05-05T03:34:08.054Z,14.53
2019-05-05T03:36:37.705Z,14.77
2019-05-05T03:39:09.824Z,13.93
2019-05-05T03:41:46.002Z,13.83
2019-05-05T03:44:21.244Z,15.07
2019-05-05T03:46:50.877Z,13.80
2019-05-05T03:49:20.636Z,14.17
2019-05-05T03:51:50.405Z,15.20
2019-05-05T03:54:20.186Z,14.53
2019-05-05T03:56:54.452Z,15.17
2019-05-05T03:59:24.388Z,15.23
2019-05-05T04:02:03.806Z,14.87
2019-05-05T04:04:37.160Z,15.30
2019-05-05T04:07:06.665Z,14.63
2019-05-05T04:09:36.432Z,15.90
2019-05-05T04:12:06.005Z,15.03
2019-05-05T04:14:35.619Z,15.20
2019-05-05T04:17:17.785Z,15.60
2019-05-05T04:19:49.939Z,15.63
2019-05-05T04:22:19.598Z,15.87
2019-05-05T04:24:49.230Z,15.60
2019-05-05T04:27:18.777Z,16.90
2019-05-05T04:29:48.512Z,16.90
2019-05-05T04:32:18.137Z,16.90
2019-05-05T04:34:47.935Z,16.10
2019-05-05T04:37:17.375Z,16.90
2019-05-05T04:39:46.720Z,17.00
2019-05-05T04:42:16.110Z,18.17
2019-05-05T04:44:45.456Z,18.27
2019-05-05T04:47:21.002Z,15.90
2019-05-05T04:50:07.999Z,15.50
2019-05-05T04:52:37.386Z,15.30
2019-05-05T04:55:06.763Z,16.83
2019-05-05T04:57:36.171Z,15.53
2019-05-05T05:00:05.857Z,17.60
2019-05-05T05:02:49.535Z,16.37
2019-05-05T05:05:33.724Z,16.17
2019-05-05T05:08:03.826Z,17.03
2019-05-05T05:10:34.588Z,16.30
2019-05-05T05:13:04.700Z,15.67
2019-05-05T05:15:34.190Z,16.07
2019-05-05T05:18:11.211Z,17.20
2019-05-05T05:20:40.555Z,16.10
2019-05-05T05:23:09.940Z,15.83
2019-05-05T05:25:39.277Z,14.70
2019-05-05T05:28:08.709Z,16.10
2019-05-05T05:30:38.081Z,15.73
2019-05-05T05:33:07.480Z,15.53
2019-05-05T05:35:36.828Z,15.60
2019-05-05T05:38:06.205Z,16.63
2019-05-05T05:40:57.505Z,16.53
2019-05-05T05:43:38.828Z,16.97
2019-05-05T05:46:19.481Z,14.67
2019-05-05T05:49:06.617Z,14.63
2019-05-05T05:51:36.045Z,14.30
2019-05-05T05:54:05.433Z,14.00
2019-05-05T05:56:34.794Z,14.67
2019-05-05T05:59:04.200Z,15.87
2019-05-05T06:01:34.572Z,16.03
2019-05-05T06:04:04.224Z,14.30
2019-05-05T06:06:34.687Z,14.80
2019-05-05T06:09:04.518Z,14.13
2019-05-05T06:11:34.420Z,14.27
2019-05-05T06:14:04.183Z,12.97
2019-05-05T06:16:34.177Z,13.53
2019-05-05T06:19:03.844Z,13.13
2019-05-05T06:21:33.719Z,14.37
2019-05-05T06:24:04.439Z,13.50
2019-05-05T06:26:34.398Z,13.40
2019-05-05T06:29:04.393Z,13.80
2019-05-05T06:31:34.253Z,11.93
2019-05-05T06:34:03.889Z,12.23
2019-05-05T06:36:34.031Z,12.60
2019-05-05T06:39:04.880Z,11.07
2019-05-05T06:41:53.916Z,10.80
2019-05-05T06:44:48.059Z,10.40
2019-05-05T06:47:20.381Z,9.27
2019-05-05T06:49:49.767Z,9.13
2019-05-05T06:52:19.109Z,8.60
2019-05-05T06:54:48.508Z,7.70
2019-05-05T06:57:17.854Z,8.10
2019-05-05T06:59:47.239Z,8.03
2019-05-05T07:02:16.599Z,7.77
2019-05-05T07:04:46.002Z,8.23
2019-05-05T07:07:15.338Z,8.80
2019-05-05T07:09:44.718Z,8.50
2019-05-05T07:12:14.122Z,7.90
2019-05-05T07:14:44.605Z,7.43
2019-05-05T07:17:14.292Z,6.37
2019-05-05T07:19:44.974Z,6.47
2019-05-05T07:22:17.602Z,6.00
2019-05-05T07:24:45.651Z,6.43
2019-05-05T07:27:15.242Z,5.40
2019-05-05T07:29:44.888Z,4.60
2019-05-05T07:32:14.452Z,6.00
2019-05-05T07:35:04.073Z,5.83
2019-05-05T07:37:34.401Z,6.10
2019-05-05T07:40:04.521Z,5.97
2019-05-05T07:42:34.156Z,6.60
2019-05-05T07:45:08.387Z,7.57
2019-05-05T07:47:35.447Z,6.73
2019-05-05T07:50:05.219Z,7.03
2019-05-05T07:52:34.765Z,6.43
2019-05-05T07:55:04.394Z,6.83
2019-05-05T07:57:34.245Z,6.77
2019-05-05T08:00:05.436Z,5.00
2019-05-05T08:02:35.117Z,6.20
2019-05-05T08:05:05.030Z,6.73
2019-05-05T08:07:34.737Z,5.63
2019-05-05T08:10:04.723Z,5.43
2019-05-05T08:12:34.332Z,5.47
2019-05-05T08:15:05.039Z,4.53
2019-05-05T08:17:47.652Z,4.47
2019-05-05T08:20:23.666Z,4.80
2019-05-05T08:22:53.729Z,5.20
2019-05-05T08:25:37.515Z,5.07
2019-05-05T08:28:14.691Z,4.20
2019-05-05T08:31:08.175Z,3.90
2019-05-05T08:33:37.813Z,4.27
2019-05-05T08:36:07.639Z,5.00
2019-05-05T08:38:37.227Z,4.70
2019-05-05T08:41:06.856Z,6.97
2019-05-05T08:43:36.444Z,6.00
2019-05-05T08:46:06.092Z,6.37
2019-05-05T08:48:35.673Z,7.93
2019-05-05T08:51:05.279Z,6.13
2019-05-05T08:53:43.385Z,6.27
2019-05-05T08:56:06.070Z,6.17
2019-05-05T08:58:35.736Z,7.10
2019-05-05T09:01:05.388Z,6.20
2019-05-05T09:03:35.048Z,7.07
2019-05-05T09:06:04.879Z,8.77
2019-05-05T09:08:34.846Z,7.27
2019-05-05T09:11:04.928Z,13.00
2019-05-05T09:13:34.552Z,11.43
2019-05-05T09:16:04.296Z,7.73
2019-05-05T09:18:35.613Z,5.97
2019-05-05T09:21:05.255Z,5.20
2019-05-05T09:23:36.584Z,6.53
2019-05-05T09:26:13.880Z,4.77
2019-05-05T09:29:04.294Z,6.00
2019-05-05T09:31:35.517Z,5.23
2019-05-05T09:34:05.054Z,6.37
2019-05-05T09:36:34.877Z,5.10
2019-05-05T09:39:05.048Z,4.97
2019-05-05T09:41:34.668Z,5.00
2019-05-05T09:44:04.412Z,5.20
2019-05-05T09:46:34.145Z,4.70
2019-05-05T09:49:04.668Z,5.70
2019-05-05T09:51:34.834Z,5.20
2019-05-05T09:54:14.143Z,5.67
2019-05-05T09:56:36.193Z,4.90
2019-05-05T09:59:05.884Z,4.07
2019-05-05T10:01:35.553Z,3.93
2019-05-05T10:04:09.005Z,4.60
2019-05-05T10:06:39.144Z,4.17
2019-05-05T10:09:09.171Z,11.97
2019-05-05T10:11:38.692Z,5.47
2019-05-05T10:14:08.341Z,6.40
2019-05-05T10:16:38.186Z,5.53
2019-05-05T10:19:07.972Z,3.90
2019-05-05T10:21:37.547Z,3.90
2019-05-05T10:24:27.104Z,4.20
2019-05-05T10:26:45.451Z,3.23
2019-05-05T10:29:15.193Z,4.70
2019-05-05T10:31:44.778Z,4.60
2019-05-05T10:34:16.306Z,4.40
2019-05-05T10:36:45.956Z,3.77
2019-05-05T10:39:24.436Z,3.80
2019-05-05T10:41:56.147Z,3.60
2019-05-05T10:44:25.483Z,3.77
2019-05-05T10:46:55.113Z,4.10
2019-05-05T10:49:24.796Z,4.00
2019-05-05T10:51:54.513Z,4.30
2019-05-05T10:54:24.216Z,5.50
2019-05-05T10:56:53.852Z,4.80
2019-05-05T10:59:23.865Z,5.53
2019-05-05T11:01:53.885Z,5.10
2019-05-05T11:04:24.376Z,4.70
2019-05-05T11:06:54.609Z,5.50
2019-05-05T11:09:24.552Z,4.63
2019-05-05T11:11:54.172Z,4.23
2019-05-05T11:14:23.788Z,4.50
2019-05-05T11:16:54.630Z,4.30
2019-05-05T11:19:24.467Z,4.00
2019-05-05T11:21:54.102Z,4.00
2019-05-05T11:24:24.071Z,4.60
2019-05-05T11:26:54.096Z,4.63
2019-05-05T11:29:24.191Z,5.27
2019-05-05T11:31:54.395Z,5.10
2019-05-05T11:34:27.365Z,5.30
2019-05-05T11:37:08.546Z,5.03
2019-05-05T11:39:38.173Z,4.90
2019-05-05T11:42:07.719Z,4.27
2019-05-05T11:44:37.414Z,4.57
2019-05-05T11:47:07.144Z,4.77
2019-05-05T11:49:36.814Z,4.90
2019-05-05T11:52:06.375Z,4.27
2019-05-05T11:54:36.026Z,4.37
2019-05-05T11:57:05.765Z,4.40
2019-05-05T11:59:35.346Z,4.20
2019-05-05T12:02:05.665Z,4.40
2019-05-05T12:04:35.273Z,4.40
2019-05-05T12:07:04.950Z,4.63
2019-05-05T12:09:54.914Z,3.60
2019-05-05T12:12:24.721Z,3.90
2019-05-05T12:14:54.872Z,4.33
2019-05-05T12:17:36.782Z,4.80
2019-05-05T12:20:08.547Z,4.17
2019-05-05T12:22:38.105Z,4.43
2019-05-05T12:25:28.530Z,4.63
2019-05-05T12:28:01.668Z,4.53
2019-05-05T12:30:31.264Z,4.10
2019-05-05T12:33:00.939Z,4.53
2019-05-05T12:35:30.580Z,4.50
2019-05-05T12:38:00.233Z,4.43
2019-05-05T12:40:29.879Z,3.20
2019-05-05T12:42:59.522Z,4.37
2019-05-05T12:45:31.386Z,3.47
2019-05-05T12:48:18.349Z,4.17
2019-05-05T12:50:48.272Z,3.90
2019-05-05T12:53:17.958Z,4.33
2019-05-05T12:55:47.611Z,3.57
2019-05-05T12:58:17.238Z,4.00
2019-05-05T13:00:54.315Z,4.00
2019-05-05T13:03:24.053Z,3.60
2019-05-05T13:05:53.662Z,3.70
2019-05-05T13:08:23.516Z,4.70
2019-05-05T13:10:53.515Z,4.67
2019-05-05T13:13:23.683Z,3.80
2019-05-05T13:15:53.705Z,3.80
2019-05-05T13:18:24.548Z,4.20
2019-05-05T13:21:01.213Z,4.23
2019-05-05T13:23:53.871Z,3.40
2019-05-05T13:26:33.256Z,3.20
2019-05-05T13:29:02.941Z,3.67
2019-05-05T13:31:33.780Z,3.60
2019-05-05T13:34:04.406Z,3.90
2019-05-05T13:36:34.078Z,3.90
2019-05-05T13:39:05.448Z,3.80
2019-05-05T13:41:36.675Z,3.40
2019-05-05T13:44:10.000Z,3.10
2019-05-05T13:46:39.541Z,2.60
2019-05-05T13:49:26.659Z,2.77
2019-05-05T13:51:57.935Z,3.23
2019-05-05T13:54:27.579Z,3.27
2019-05-05T13:56:57.321Z,2.90
2019-05-05T13:59:26.909Z,2.87
2019-05-05T14:01:56.640Z,2.83
2019-05-05T14:04:26.272Z,2.83
2019-05-05T14:06:55.932Z,2.70
2019-05-05T14:09:25.596Z,2.10
2019-05-05T14:11:55.348Z,2.80
2019-05-05T14:14:25.015Z,2.63
2019-05-05T14:16:54.675Z,3.70
2019-05-05T14:19:24.941Z,4.30
2019-05-05T14:21:54.686Z,4.40
2019-05-05T14:24:30.692Z,5.10
2019-05-05T14:27:00.265Z,5.27
2019-05-05T14:29:41.428Z,4.70
2019-05-05T14:32:13.618Z,5.17
2019-05-05T14:34:46.946Z,5.60
2019-05-05T14:37:27.399Z,5.40
2019-05-05T14:39:57.054Z,5.10
2019-05-05T14:42:26.687Z,5.00
2019-05-05T14:44:56.359Z,5.33
2019-05-05T14:47:26.007Z,4.90
2019-05-05T14:49:55.579Z,4.97
2019-05-05T14:52:25.363Z,5.43
2019-05-05T14:54:54.860Z,4.63
2019-05-05T14:57:28.440Z,4.27
2019-05-05T14:59:58.291Z,4.57
2019-05-05T15:02:27.955Z,4.00
2019-05-05T15:05:00.100Z,4.20
2019-05-05T15:07:39.075Z,4.30
2019-05-05T15:10:36.637Z,3.80
2019-05-05T15:13:08.609Z,2.80
2019-05-05T15:15:38.516Z,2.60
2019-05-05T15:18:08.414Z,3.43
2019-05-05T15:20:37.940Z,2.50
2019-05-05T15:23:07.628Z,3.30
2019-05-05T15:25:37.389Z,3.47
2019-05-05T15:28:07.090Z,3.20
2019-05-05T15:30:36.894Z,3.30
2019-05-05T15:33:06.578Z,2.90
2019-05-05T15:35:36.232Z,3.40
2019-05-05T15:38:05.856Z,2.50
2019-05-05T15:40:35.450Z,2.17
2019-05-05T15:43:05.098Z,2.33
2019-05-05T15:45:34.729Z,2.23
2019-05-05T15:48:04.667Z,3.20
2019-05-05T15:50:34.391Z,2.57
2019-05-05T15:53:04.067Z,2.73
2019-05-05T15:55:34.012Z,2.40
2019-05-05T15:58:03.773Z,2.60
2019-05-05T16:00:34.496Z,2.33
2019-05-05T16:03:07.058Z,2.20
2019-05-05T16:05:35.652Z,2.53
2019-05-05T16:08:05.332Z,2.53
2019-05-05T16:10:34.870Z,1.90
2019-05-05T16:13:04.594Z,2.13
2019-05-05T16:15:53.558Z,2.00
2019-05-05T16:18:48.671Z,2.13
2019-05-05T16:21:26.351Z,1.90
2019-05-05T16:24:01.105Z,1.70
2019-05-05T16:26:31.877Z,1.73
2019-05-05T16:29:01.472Z,2.20
2019-05-05T16:31:34.113Z,2.07
2019-05-05T16:34:03.887Z,2.30
2019-05-05T16:36:33.691Z,2.10
2019-05-05T16:39:03.465Z,2.40
2019-05-05T16:41:34.061Z,3.10
2019-05-05T16:44:03.819Z,3.90
2019-05-05T16:46:34.146Z,3.50
2019-05-05T16:49:03.910Z,3.53
2019-05-05T16:51:36.996Z,3.57
2019-05-05T16:54:10.936Z,4.03
2019-05-05T16:56:40.853Z,3.30
2019-05-05T16:59:10.531Z,4.00
2019-05-05T17:01:40.094Z,3.70
2019-05-05T17:04:11.604Z,4.10
2019-05-05T17:06:41.614Z,3.40
2019-05-05T17:09:11.428Z,3.23
2019-05-05T17:11:43.970Z,3.03
2019-05-05T17:14:23.483Z,3.17
2019-05-05T17:17:11.229Z,3.23
2019-05-05T17:19:50.330Z,1.90
2019-05-05T17:22:47.792Z,2.83
2019-05-05T17:25:17.473Z,2.60
2019-05-05T17:27:50.934Z,3.03
2019-05-05T17:30:18.711Z,2.70
2019-05-05T17:32:48.304Z,2.90
2019-05-05T17:35:18.848Z,2.77
2019-05-05T17:37:48.240Z,3.23
2019-05-05T17:40:24.977Z,2.50
2019-05-05T17:43:24.366Z,3.10
2019-05-05T17:45:59.829Z,4.00
2019-05-05T17:48:48.215Z,4.00
2019-05-05T17:51:39.731Z,4.60
2019-05-05T17:54:37.057Z,3.83
2019-05-05T17:57:06.708Z,3.73
2019-05-05T17:59:36.375Z,4.00
2019-05-05T18:02:06.029Z,4.77
2019-05-05T18:04:35.593Z,5.00
2019-05-05T18:07:24.038Z,4.87
2019-05-05T18:10:19.246Z,4.73
2019-05-05T18:13:05.879Z,4.50
2019-05-05T18:15:54.373Z,5.30
2019-05-05T18:18:24.059Z,4.00
2019-05-05T18:20:54.271Z,5.77
2019-05-05T18:23:24.020Z,3.50
2019-05-05T18:25:54.837Z,3.67
2019-05-05T18:28:24.794Z,4.03
2019-05-05T18:30:54.506Z,3.60
2019-05-05T18:33:24.731Z,3.60
2019-05-05T18:35:54.468Z,4.10
2019-05-05T18:38:24.259Z,3.93
2019-05-05T18:40:55.709Z,3.67
2019-05-05T18:43:37.786Z,4.60
2019-05-05T18:46:07.584Z,4.30
2019-05-05T18:48:37.253Z,4.30
2019-05-05T18:51:06.664Z,4.70
2019-05-05T18:53:36.101Z,4.77
2019-05-05T18:56:05.766Z,4.50
2019-05-05T18:58:37.126Z,6.10
2019-05-05T19:01:19.803Z,5.70
2019-05-05T19:04:07.023Z,6.37
2019-05-05T19:07:10.527Z,5.60
2019-05-05T19:09:51.060Z,5.57
2019-05-05T19:12:11.508Z,5.83
2019-05-05T19:14:41.159Z,5.47
2019-05-05T19:17:10.729Z,5.70
2019-05-05T19:19:41.818Z,5.37
2019-05-05T19:22:13.863Z,5.80
2019-05-05T19:24:44.059Z,5.10
2019-05-05T19:27:14.257Z,5.00
2019-05-05T19:29:46.056Z,5.60
2019-05-05T19:32:15.207Z,5.60
2019-05-05T19:34:44.855Z,5.53
2019-05-05T19:37:14.727Z,5.37
2019-05-05T19:39:44.548Z,5.10
2019-05-05T19:42:14.470Z,4.60
2019-05-05T19:44:44.240Z,5.07
2019-05-05T19:47:19.406Z,4.20
2019-05-05T19:49:58.128Z,3.97
2019-05-05T19:52:27.732Z,4.20
2019-05-05T19:54:57.319Z,4.60
2019-05-05T19:57:26.911Z,4.77
2019-05-05T19:59:56.636Z,4.67
2019-05-05T20:02:26.314Z,4.60
2019-05-05T20:04:55.947Z,4.50
2019-05-05T20:07:25.534Z,4.87
2019-05-05T20:09:55.197Z,4.97
2019-05-05T20:12:24.823Z,5.30
2019-05-05T20:14:54.864Z,5.80
2019-05-05T20:17:30.021Z,6.27
2019-05-05T20:19:59.611Z,6.77
2019-05-05T20:22:29.303Z,6.00
2019-05-05T20:24:58.705Z,6.93
2019-05-05T20:27:28.356Z,6.53
2019-05-05T20:29:58.024Z,6.03
2019-05-05T20:32:34.238Z,6.47
2019-05-05T20:35:33.837Z,6.00
2019-05-05T20:38:09.766Z,6.70
2019-05-05T20:40:40.788Z,7.50
2019-05-05T20:43:10.368Z,7.00
2019-05-05T20:45:39.931Z,6.50
2019-05-05T20:48:09.723Z,7.20
2019-05-05T20:50:39.284Z,6.67
2019-05-05T20:53:09.138Z,7.00
2019-05-05T20:55:38.755Z,5.77
2019-05-05T20:58:08.576Z,7.00
2019-05-05T21:00:38.170Z,7.47
2019-05-05T21:03:07.825Z,6.87
2019-05-05T21:05:37.489Z,7.37
2019-05-05T21:08:07.105Z,7.33
2019-05-05T21:10:36.680Z,7.00
2019-05-05T21:13:06.315Z,7.23
2019-05-05T21:15:36.007Z,6.90
2019-05-05T21:18:05.657Z,7.23
2019-05-05T21:20:35.447Z,6.40
2019-05-05T21:23:10.893Z,6.90
2019-05-05T21:25:44.506Z,6.67
2019-05-05T21:28:14.749Z,6.63
2019-05-05T21:30:44.424Z,6.73
2019-05-05T21:33:13.969Z,6.60
2019-05-05T21:35:44.176Z,7.70
2019-05-05T21:38:14.296Z,7.00
2019-05-05T21:40:44.148Z,7.20
2019-05-05T21:43:15.356Z,7.43
2019-05-05T21:45:45.311Z,6.93
2019-05-05T21:48:14.897Z,6.60
2019-05-05T21:50:50.534Z,7.33
2019-05-05T21:53:34.278Z,7.00
2019-05-05T21:56:27.673Z,7.90
2019-05-05T21:58:58.153Z,7.00
2019-05-05T22:01:28.859Z,7.40
2019-05-05T22:03:58.515Z,7.17
2019-05-05T22:06:28.156Z,7.60
2019-05-05T22:08:58.274Z,7.07
2019-05-05T22:11:27.880Z,6.80
2019-05-05T22:13:57.525Z,7.00
2019-05-05T22:16:27.124Z,8.43
2019-05-05T22:18:56.803Z,9.17
2019-05-05T22:21:35.991Z,7.80
2019-05-05T22:24:19.365Z,7.70
2019-05-05T22:26:48.977Z,8.43
2019-05-05T22:29:18.658Z,7.93
2019-05-05T22:31:48.847Z,8.20
2019-05-05T22:34:18.503Z,8.20
2019-05-05T22:36:48.150Z,8.03
2019-05-05T22:39:17.842Z,7.80
2019-05-05T22:41:47.573Z,7.83
2019-05-05T22:44:17.130Z,8.77
2019-05-05T22:46:46.769Z,8.57
2019-05-05T22:49:16.514Z,8.67
2019-05-05T22:51:46.207Z,9.50
2019-05-05T22:54:15.820Z,8.77
2019-05-05T22:56:45.550Z,8.43
2019-05-05T22:59:15.307Z,7.87
2019-05-05T23:01:44.999Z,8.37
2019-05-05T23:04:34.770Z,8.23
2019-05-05T23:07:11.257Z,7.33
2019-05-05T23:09:40.846Z,8.60
2019-05-05T23:12:10.507Z,7.40
2019-05-05T23:14:40.165Z,8.47
2019-05-05T23:17:27.411Z,7.90
2019-05-05T23:20:16.301Z,8.03
2019-05-05T23:22:58.971Z,8.17
2019-05-05T23:25:33.565Z,8.50
2019-05-05T23:28:04.096Z,8.40
2019-05-05T23:30:41.631Z,8.90
2019-05-05T23:33:05.134Z,8.37
2019-05-05T23:35:34.781Z,8.43
2019-05-05T23:38:04.446Z,8.57
2019-05-05T23:40:34.086Z,7.80
2019-05-05T23:43:04.514Z,7.97
2019-05-05T23:45:34.334Z,8.40
2019-05-05T23:48:03.902Z,7.60
2019-05-05T23:50:33.908Z,8.67
2019-05-05T23:53:03.528Z,8.73
2019-05-05T23:55:34.422Z,7.80
2019-05-05T23:58:04.215Z,8.40
